Time,TemperatureF,DewpointF,PressureIn,WindDirection,WindDirectionDegrees,WindSpeedMPH,WindSpeedGustMPH,Humidity,HourlyPrecipIn,Conditions,Clouds,dailyrainin,SoftwareType,DateUTC
2013-05-08 00:10:00,51.1,29.9,29.92,WNW,292,0.0,-999.0,44,-99.99,,,0.00,Acu-Link.com,2013-05-08 04:10:00,
2013-05-08 00:26:00,50.7,-34.7,29.93,WNW,292,0.0,-999.0,2,-99.99,,,0.00,Acu-Link.com,2013-05-08 04:26:00,
2013-05-08 00:41:00,50.2,49.9,29.93,WNW,292,0.0,-999.0,99,-99.99,,,0.00,Acu-Link.com,2013-05-08 04:41:00,
2013-05-08 00:56:00,50.0,49.7,29.92,WNW,292,0.0,-999.0,99,-99.99,,,0.00,Acu-Link.com,2013-05-08 04:56:00,
2013-05-08 01:11:00,49.5,49.2,29.92,West,270,0.0,-999.0,99,-99.99,,,0.00,Acu-Link.com,2013-05-08 05:11:00,
2013-05-08 01:26:00,49.1,48.8,29.92,NW,315,0.0,-999.0,99,-99.99,,,0.00,Acu-Link.com,2013-05-08 05:26:00,
2013-05-08 01:42:00,48.7,48.5,29.91,West,270,0.0,-999.0,99,-99.99,,,0.00,Acu-Link.com,2013-05-08 05:42:00,
2013-05-08 01:57:00,48.6,48.3,29.92,WNW,292,0.0,-999.0,99,-99.99,,,0.00,Acu-Link.com,2013-05-08 05:57:00,
2013-05-08 02:12:00,48.0,47.8,29.91,West,270,0.0,-999.0,99,-99.99,,,0.00,Acu-Link.com,2013-05-08 06:12:00,
2013-05-08 02:27:00,47.8,47.6,29.91,WNW,292,0.0,-999.0,99,-99.99,,,0.00,Acu-Link.com,2013-05-08 06:27:00,
2013-05-08 02:42:00,47.5,47.2,29.90,WNW,292,0.0,-999.0,99,-99.99,,,0.00,Acu-Link.com,2013-05-08 06:42:00,
2013-05-08 02:58:00,47.3,47.0,29.89,WNW,292,0.0,-999.0,99,-99.99,,,0.00,Acu-Link.com,2013-05-08 06:58:00,
2013-05-08 03:13:00,47.1,46.9,29.89,WNW,292,0.0,-999.0,99,-99.99,,,0.00,Acu-Link.com,2013-05-08 07:13:00,
2013-05-08 03:28:00,46.9,46.7,29.89,WNW,292,0.0,-999.0,99,-99.99,,,0.00,Acu-Link.com,2013-05-08 07:28:00,
2013-05-08 03:43:00,46.9,46.7,29.89,WNW,292,0.0,-999.0,99,-99.99,,,0.00,Acu-Link.com,2013-05-08 07:43:00,
2013-05-08 03:59:00,46.8,46.5,29.89,WNW,292,0.0,-999.0,99,-99.99,,,0.00,Acu-Link.com,2013-05-08 07:59:00,
2013-05-08 04:14:00,46.9,46.7,29.89,WNW,292,0.0,-999.0,99,-99.99,,,0.00,Acu-Link.com,2013-05-08 08:14:00,
2013-05-08 04:29:00,47.3,47.0,29.89,WNW,292,0.0,-999.0,99,-99.99,,,0.00,Acu-Link.com,2013-05-08 08:29:00,
2013-05-08 04:44:00,47.5,47.2,29.89,WNW,292,0.0,-999.0,99,-99.99,,,0.00,Acu-Link.com,2013-05-08 08:44:00,
2013-05-08 04:59:00,47.3,47.0,29.89,West,270,0.0,-999.0,99,-99.99,,,0.00,Acu-Link.com,2013-05-08 08:59:00,
2013-05-08 05:14:00,47.1,46.9,29.89,WNW,292,0.0,-999.0,99,-99.99,,,0.00,Acu-Link.com,2013-05-08 09:14:00,
2013-05-08 05:29:00,46.8,46.5,29.88,South,180,0.0,-999.0,99,-99.99,,,0.00,Acu-Link.com,2013-05-08 09:29:00,
2013-05-08 05:44:00,46.8,46.5,29.89,WNW,292,0.0,-999.0,99,-99.99,,,0.00,Acu-Link.com,2013-05-08 09:44:00,
2013-05-08 06:00:00,46.6,46.3,29.89,WNW,292,0.0,-999.0,99,-99.99,,,0.00,Acu-Link.com,2013-05-08 10:00:00,
2013-05-08 06:15:00,46.6,46.3,29.89,West,270,0.0,-999.0,99,-99.99,,,0.00,Acu-Link.com,2013-05-08 10:15:00,
2013-05-08 06:30:00,46.8,46.5,29.89,WNW,292,0.0,-999.0,99,-99.99,,,0.00,Acu-Link.com,2013-05-08 10:30:00,
2013-05-08 06:45:00,46.8,46.5,29.89,WNW,292,0.0,-999.0,99,-99.99,,,0.00,Acu-Link.com,2013-05-08 10:45:00,
2013-05-08 07:00:00,47.3,47.0,29.89,WNW,292,0.0,-999.0,99,-99.99,,,0.00,Acu-Link.com,2013-05-08 11:00:00,
2013-05-08 07:16:00,48.4,48.1,29.90,SW,225,0.0,-999.0,99,-99.99,,,0.00,Acu-Link.com,2013-05-08 11:16:00,
2013-05-08 07:31:00,49.5,49.2,29.90,West,270,0.0,-999.0,99,-99.99,,,0.00,Acu-Link.com,2013-05-08 11:31:00,
2013-05-08 07:46:00,52.9,52.6,29.91,SSW,202,0.0,-999.0,99,-99.99,,,0.00,Acu-Link.com,2013-05-08 11:46:00,
2013-05-08 08:01:00,55.0,54.8,29.91,NW,315,2.2,-999.0,99,-99.99,,,0.00,Acu-Link.com,2013-05-08 12:01:00,
2013-05-08 08:16:00,64.2,61.5,29.91,West,270,0.0,-999.0,91,-99.99,,,0.00,Acu-Link.com,2013-05-08 12:16:00,
2013-05-08 08:32:00,62.8,57.5,29.91,NNE,22,3.1,-999.0,83,-99.99,,,0.00,Acu-Link.com,2013-05-08 12:32:00,
2013-05-08 08:47:00,65.3,57.9,29.91,NNW,337,5.1,-999.0,77,-99.99,,,0.00,Acu-Link.com,2013-05-08 12:47:00,
2013-05-08 09:02:00,67.8,58.1,29.90,West,270,4.3,-999.0,71,-99.99,,,0.00,Acu-Link.com,2013-05-08 13:02:00,
2013-05-08 09:17:00,70.7,58.8,29.91,NW,315,3.8,-999.0,66,-99.99,,,0.00,Acu-Link.com,2013-05-08 13:17:00,
2013-05-08 09:33:00,71.8,58.5,29.91,North,0,4.7,-999.0,63,-99.99,,,0.00,Acu-Link.com,2013-05-08 13:33:00,
2013-05-08 09:48:00,74.7,58.9,29.91,NNW,337,3.8,-999.0,58,-99.99,,,0.00,Acu-Link.com,2013-05-08 13:48:00,
2013-05-08 10:03:00,78.6,59.0,29.91,East,90,2.7,-999.0,51,-99.99,,,0.00,Acu-Link.com,2013-05-08 14:03:00,
2013-05-08 10:18:00,77.9,58.8,29.90,West,270,4.3,-999.0,52,-99.99,,,0.00,Acu-Link.com,2013-05-08 14:18:00,
2013-05-08 10:33:00,77.7,57.0,29.90,North,0,3.8,-999.0,49,-99.99,,,0.00,Acu-Link.com,2013-05-08 14:33:00,
2013-05-08 10:48:00,79.2,58.3,29.90,ESE,112,6.7,-999.0,49,-99.99,,,0.00,Acu-Link.com,2013-05-08 14:48:00,
2013-05-08 11:04:00,79.5,58.7,29.91,ENE,67,1.1,-999.0,49,-99.99,,,0.00,Acu-Link.com,2013-05-08 15:04:00,
2013-05-08 11:19:00,80.8,59.8,29.91,NE,45,6.3,-999.0,49,-99.99,,,0.00,Acu-Link.com,2013-05-08 15:19:00,
2013-05-08 11:34:00,81.7,59.5,29.90,East,90,7.4,-999.0,47,-99.99,,,0.00,Acu-Link.com,2013-05-08 15:34:00,
2013-05-08 11:49:00,81.0,59.4,29.91,NE,45,3.1,-999.0,48,-99.99,,,0.00,Acu-Link.com,2013-05-08 15:49:00,
2013-05-08 12:04:00,82.4,61.3,29.91,East,90,3.8,-999.0,49,-99.99,,,0.00,Acu-Link.com,2013-05-08 16:04:00,
2013-05-08 12:20:00,82.9,58.8,29.90,ENE,67,7.4,-999.0,44,-99.99,,,0.00,Acu-Link.com,2013-05-08 16:20:00,
2013-05-08 12:35:00,84.4,57.4,29.90,ENE,67,4.7,-999.0,40,-99.99,,,0.00,Acu-Link.com,2013-05-08 16:35:00,
2013-05-08 12:50:00,84.2,59.2,29.89,ENE,67,7.4,-999.0,43,-99.99,,,0.00,Acu-Link.com,2013-05-08 16:50:00,
2013-05-08 13:05:00,85.5,59.7,29.88,NE,45,2.2,-999.0,42,-99.99,,,0.00,Acu-Link.com,2013-05-08 17:05:00,
2013-05-08 13:20:00,84.0,57.1,29.88,NNW,337,4.7,-999.0,40,-99.99,,,0.00,Acu-Link.com,2013-05-08 17:20:00,
2013-05-08 13:35:00,85.6,60.5,29.88,NE,45,3.1,-999.0,43,-99.99,,,0.00,Acu-Link.com,2013-05-08 17:35:00,
2013-05-08 13:51:00,84.2,57.9,29.87,North,0,5.1,-999.0,41,-99.99,,,0.00,Acu-Link.com,2013-05-08 17:51:00,
2013-05-08 14:06:00,83.8,58.3,29.87,ENE,67,7.4,-999.0,42,-99.99,,,0.00,Acu-Link.com,2013-05-08 18:06:00,
2013-05-08 14:21:00,84.6,57.5,29.86,SE,135,3.8,-999.0,40,-99.99,,,0.00,Acu-Link.com,2013-05-08 18:21:00,
2013-05-08 14:36:00,79.7,54.6,29.86,NNE,22,2.7,-999.0,42,-99.99,,,0.00,Acu-Link.com,2013-05-08 18:36:00,
2013-05-08 14:51:00,81.9,53.7,29.85,West,270,1.1,-999.0,38,-99.99,,,0.00,Acu-Link.com,2013-05-08 18:51:00,
2013-05-08 15:07:00,82.9,59.4,29.86,North,0,6.3,-999.0,45,-99.99,,,0.00,Acu-Link.com,2013-05-08 19:07:00,
2013-05-08 15:22:00,88.7,59.0,29.85,NNE,22,3.8,-999.0,37,-99.99,,,0.00,Acu-Link.com,2013-05-08 19:22:00,
2013-05-08 15:37:00,81.3,56.7,29.85,NNW,337,4.7,-999.0,43,-99.99,,,0.00,Acu-Link.com,2013-05-08 19:37:00,
2013-05-08 15:52:00,79.5,56.9,29.85,NE,45,6.3,-999.0,46,-99.99,,,0.00,Acu-Link.com,2013-05-08 19:52:00,
2013-05-08 16:07:00,81.0,56.3,29.85,ESE,112,0.0,-999.0,43,-99.99,,,0.00,Acu-Link.com,2013-05-08 20:07:00,
2013-05-08 16:22:00,80.6,57.3,29.84,ESE,112,0.0,-999.0,45,-99.99,,,0.00,Acu-Link.com,2013-05-08 20:22:00,
2013-05-08 16:38:00,79.5,61.4,29.84,ESE,112,2.7,-999.0,54,-99.99,,,0.00,Acu-Link.com,2013-05-08 20:38:00,
2013-05-08 16:53:00,82.2,58.1,29.83,SE,135,4.3,-999.0,44,-99.99,,,0.00,Acu-Link.com,2013-05-08 20:53:00,
2013-05-08 17:08:00,78.6,56.7,29.83,ESE,112,4.7,-999.0,47,-99.99,,,0.00,Acu-Link.com,2013-05-08 21:08:00,
2013-05-08 17:23:00,78.6,60.6,29.84,ESE,112,3.8,-999.0,54,-99.99,,,0.00,Acu-Link.com,2013-05-08 21:23:00,
2013-05-08 17:38:00,73.0,60.1,29.84,SSE,157,6.3,-999.0,64,-99.99,,,0.00,Acu-Link.com,2013-05-08 21:38:00,
2013-05-08 17:54:00,68.7,64.0,29.84,South,180,4.7,-999.0,85,-99.99,,,0.01,Acu-Link.com,2013-05-08 21:54:00,
2013-05-08 18:09:00,68.2,65.8,29.84,WNW,292,0.0,-999.0,92,-99.99,,,0.02,Acu-Link.com,2013-05-08 22:09:00,
2013-05-08 18:24:00,68.5,66.7,29.83,SW,225,0.0,-999.0,94,-99.99,,,0.02,Acu-Link.com,2013-05-08 22:24:00,
2013-05-08 18:39:00,69.4,66.1,29.83,WNW,292,0.0,-999.0,89,-99.99,,,0.04,Acu-Link.com,2013-05-08 22:39:00,
2013-05-08 18:54:00,69.4,66.4,29.83,NNW,337,0.0,-999.0,90,-99.99,,,0.04,Acu-Link.com,2013-05-08 22:54:00,
2013-05-08 19:10:00,70.0,67.5,29.83,West,270,5.1,-999.0,92,-99.99,,,0.04,Acu-Link.com,2013-05-08 23:10:00,
2013-05-08 19:25:00,71.6,63.2,29.83,ESE,112,3.8,-999.0,75,-99.99,,,0.04,Acu-Link.com,2013-05-08 23:25:00,
2013-05-08 19:40:00,71.8,63.8,29.83,South,180,2.2,-999.0,76,-99.99,,,0.04,Acu-Link.com,2013-05-08 23:40:00,
2013-05-08 19:55:00,71.1,64.2,29.84,ESE,112,2.7,-999.0,79,-99.99,,,0.04,Acu-Link.com,2013-05-08 23:55:00,
2013-05-08 20:10:00,70.0,67.9,29.85,East,90,0.0,-999.0,93,-99.99,,,0.04,Acu-Link.com,2013-05-09 00:10:00,
2013-05-08 20:26:00,68.5,63.5,29.85,SSE,157,0.0,-999.0,84,-99.99,,,0.04,Acu-Link.com,2013-05-09 00:26:00,
2013-05-08 20:41:00,67.5,65.1,29.85,WNW,292,0.0,-999.0,92,-99.99,,,0.04,Acu-Link.com,2013-05-09 00:41:00,
2013-05-08 20:56:00,66.0,64.5,29.85,WSW,247,0.0,-999.0,95,-99.99,,,0.04,Acu-Link.com,2013-05-09 00:56:00,
2013-05-08 21:11:00,65.1,63.0,29.86,East,90,0.0,-999.0,93,-99.99,,,0.04,Acu-Link.com,2013-05-09 01:11:00,
2013-05-08 21:27:00,63.9,61.5,29.85,West,270,0.0,-999.0,92,-99.99,,,0.04,Acu-Link.com,2013-05-09 01:27:00,
2013-05-08 21:42:00,62.6,57.4,29.86,SE,135,0.0,-999.0,83,-99.99,,,0.04,Acu-Link.com,2013-05-09 01:42:00,
2013-05-08 21:57:00,61.3,54.8,29.86,NNW,337,0.0,-999.0,79,-99.99,,,0.04,Acu-Link.com,2013-05-09 01:57:00,
2013-05-08 22:12:00,60.4,53.9,29.87,WSW,247,0.0,-999.0,79,-99.99,,,0.04,Acu-Link.com,2013-05-09 02:12:00,
2013-05-08 22:27:00,59.4,45.0,29.87,West,270,0.0,-999.0,59,-99.99,,,0.04,Acu-Link.com,2013-05-09 02:27:00,
2013-05-08 22:43:00,58.5,24.6,29.87,NNE,22,0.0,-999.0,27,-99.99,,,0.04,Acu-Link.com,2013-05-09 02:43:00,
2013-05-08 22:58:00,57.4,33.3,29.87,West,270,0.0,-999.0,40,-99.99,,,0.04,Acu-Link.com,2013-05-09 02:58:00,
2013-05-08 23:13:00,56.8,56.6,29.87,WNW,292,0.0,-999.0,99,-99.99,,,0.04,Acu-Link.com,2013-05-09 03:13:00,
2013-05-08 23:28:00,55.9,55.7,29.87,WNW,292,1.6,-999.0,99,-99.99,,,0.04,Acu-Link.com,2013-05-09 03:28:00,
2013-05-08 23:43:00,54.9,54.6,29.86,NNW,337,0.0,-999.0,99,-99.99,,,0.04,Acu-Link.com,2013-05-09 03:43:00,
2013-05-08 23:59:00,54.3,54.0,29.86,West,270,0.0,-999.0,99,-99.99,,,0.04,Acu-Link.com,2013-05-09 03:59:00,